createdAt,value
2019-02-20T00:02:12.518Z,8.13
2019-02-20T00:04:41.141Z,7.63
2019-02-20T00:07:12.039Z,9.57
2019-02-20T00:09:42.232Z,8.87
2019-02-20T00:12:10.808Z,8.00
2019-02-20T00:14:39.402Z,7.43
2019-02-20T00:20:36.583Z,8.23
2019-02-20T00:23:05.155Z,8.80
2019-02-20T00:25:33.639Z,9.20
2019-02-20T00:28:02.188Z,8.53
2019-02-20T00:30:30.760Z,8.83
2019-02-20T00:32:59.234Z,8.40
2019-02-20T00:35:27.797Z,9.07
2019-02-20T00:37:56.328Z,9.37
2019-02-20T00:40:24.883Z,8.97
2019-02-20T00:42:53.490Z,8.33
2019-02-20T00:45:32.213Z,8.73
2019-02-20T00:48:02.669Z,8.60
2019-02-20T00:50:33.831Z,9.47
2019-02-20T00:53:04.039Z,10.80
2019-02-20T00:55:32.594Z,8.93
2019-02-20T00:58:01.173Z,9.10
2019-02-20T01:00:29.994Z,9.23
2019-02-20T01:02:58.541Z,9.00
2019-02-20T01:05:27.076Z,9.63
2019-02-20T01:07:55.649Z,9.93
2019-02-20T01:10:24.239Z,10.30
2019-02-20T01:12:52.819Z,9.03
2019-02-20T01:15:21.363Z,8.97
2019-02-20T01:17:49.869Z,8.30
2019-02-20T01:20:18.404Z,9.03
2019-02-20T01:22:47.209Z,8.57
2019-02-20T01:25:15.695Z,7.80
2019-02-20T01:27:45.308Z,8.30
2019-02-20T01:30:15.022Z,8.33
2019-02-20T01:32:43.504Z,8.10
2019-02-20T01:35:12.286Z,8.17
2019-02-20T01:37:40.824Z,8.33
2019-02-20T01:40:09.515Z,8.67
2019-02-20T01:42:38.058Z,8.63
2019-02-20T01:45:07.976Z,9.70
2019-02-20T01:47:36.462Z,9.33
2019-02-20T01:50:06.380Z,9.53
2019-02-20T01:52:34.936Z,8.87
2019-02-20T01:55:03.985Z,9.23
2019-02-20T01:57:32.584Z,9.97
2019-02-20T02:00:01.059Z,11.47
2019-02-20T02:02:29.537Z,10.63
2019-02-20T02:04:58.112Z,9.60
2019-02-20T02:07:26.646Z,10.53
2019-02-20T02:09:55.154Z,10.60
2019-02-20T02:12:23.721Z,10.63
2019-02-20T02:14:52.274Z,9.90
2019-02-20T02:17:20.829Z,8.70
2019-02-20T02:19:49.390Z,8.43
2019-02-20T02:22:17.997Z,9.30
2019-02-20T02:24:46.493Z,8.60
2019-02-20T02:27:14.970Z,8.43
2019-02-20T02:29:43.455Z,9.60
2019-02-20T02:32:12.015Z,9.37
2019-02-20T02:34:40.555Z,9.30
2019-02-20T02:37:09.054Z,9.27
2019-02-20T02:39:37.598Z,8.13
2019-02-20T02:42:06.236Z,9.13
2019-02-20T02:44:34.800Z,9.30
2019-02-20T02:47:03.377Z,8.70
2019-02-20T02:49:31.939Z,8.90
2019-02-20T02:52:00.501Z,10.47
2019-02-20T02:54:29.042Z,9.43
2019-02-20T02:56:57.523Z,11.00
2019-02-20T02:59:25.985Z,10.80
2019-02-20T03:01:54.570Z,11.10
2019-02-20T03:04:23.195Z,11.60
2019-02-20T03:06:51.769Z,9.90
2019-02-20T03:09:22.758Z,10.47
2019-02-20T03:11:51.258Z,9.47
2019-02-20T03:14:19.830Z,10.87
2019-02-20T03:16:48.406Z,9.70
2019-02-20T03:19:16.955Z,10.43
2019-02-20T03:21:45.444Z,10.63
2019-02-20T03:24:14.005Z,9.50
2019-02-20T03:26:42.571Z,8.60
2019-02-20T03:29:11.058Z,8.43
2019-02-20T03:31:39.616Z,8.93
2019-02-20T03:34:09.094Z,8.73
2019-02-20T03:36:37.632Z,9.30
2019-02-20T03:39:06.653Z,9.40
2019-02-20T03:41:36.382Z,9.73
2019-02-20T03:44:04.940Z,9.07
2019-02-20T03:46:33.518Z,8.87
2019-02-20T03:49:02.085Z,9.20
2019-02-20T03:51:30.627Z,9.40
2019-02-20T03:53:59.280Z,9.67
2019-02-20T03:56:27.890Z,8.47
2019-02-20T03:58:56.430Z,8.57
2019-02-20T04:01:25.039Z,9.43
2019-02-20T04:03:53.601Z,9.87
2019-02-20T04:06:22.060Z,7.80
2019-02-20T04:08:50.615Z,9.80
2019-02-20T04:11:19.109Z,9.87
2019-02-20T04:13:47.643Z,8.90
2019-02-20T04:16:16.200Z,10.53
2019-02-20T04:18:44.741Z,9.80
2019-02-20T04:21:13.305Z,9.10
2019-02-20T04:23:41.855Z,9.37
2019-02-20T04:26:10.438Z,8.13
2019-02-20T04:28:39.006Z,9.43
2019-02-20T04:31:07.550Z,9.80
2019-02-20T04:33:36.129Z,8.80
2019-02-20T04:36:04.682Z,8.33
2019-02-20T04:38:33.234Z,8.77
2019-02-20T04:41:01.721Z,9.07
2019-02-20T04:43:30.286Z,8.77
2019-02-20T04:45:58.844Z,8.83
2019-02-20T04:48:27.383Z,9.37
2019-02-20T04:50:55.857Z,9.20
2019-02-20T04:53:24.402Z,8.80
2019-02-20T04:55:52.874Z,8.27
2019-02-20T04:58:22.670Z,9.00
2019-02-20T05:00:51.481Z,9.13
2019-02-20T05:03:20.042Z,9.87
2019-02-20T05:05:48.591Z,8.40
2019-02-20T05:08:17.065Z,9.23
2019-02-20T05:10:45.623Z,10.07
2019-02-20T05:13:14.231Z,9.10
2019-02-20T05:15:42.817Z,9.07
2019-02-20T05:18:11.349Z,9.03
2019-02-20T05:20:39.929Z,10.47
2019-02-20T05:23:08.547Z,9.80
2019-02-20T05:25:37.102Z,9.17
2019-02-20T05:28:05.583Z,9.37
2019-02-20T05:30:34.239Z,10.43
2019-02-20T05:33:02.779Z,10.17
2019-02-20T05:35:31.322Z,10.33
2019-02-20T05:37:59.818Z,10.77
2019-02-20T05:40:28.286Z,10.50
2019-02-20T05:42:56.866Z,11.23
2019-02-20T05:45:25.501Z,11.30
2019-02-20T05:47:54.087Z,10.67
2019-02-20T05:50:22.639Z,15.07
2019-02-20T05:52:51.151Z,11.93
2019-02-20T05:55:19.697Z,11.67
2019-02-20T05:57:48.302Z,10.07
2019-02-20T06:00:16.860Z,10.93
2019-02-20T06:02:45.420Z,11.73
2019-02-20T06:05:13.982Z,11.93
2019-02-20T06:07:42.547Z,11.70
2019-02-20T06:10:11.239Z,11.63
2019-02-20T06:12:39.836Z,12.30
2019-02-20T06:15:10.035Z,10.70
2019-02-20T06:17:38.602Z,12.10
2019-02-20T06:20:09.611Z,11.80
2019-02-20T06:22:38.202Z,12.20
2019-02-20T06:25:06.909Z,12.13
2019-02-20T06:27:35.405Z,12.47
2019-02-20T06:30:06.201Z,12.93
2019-02-20T06:32:34.774Z,11.63
2019-02-20T06:35:03.428Z,12.30
2019-02-20T06:37:31.980Z,13.20
2019-02-20T06:40:00.544Z,13.07
2019-02-20T06:42:29.023Z,11.97
2019-02-20T06:44:57.847Z,14.13
2019-02-20T06:47:26.342Z,13.73
2019-02-20T06:49:55.859Z,13.57
2019-02-20T06:52:24.408Z,12.37
2019-02-20T06:54:54.150Z,12.90
2019-02-20T06:57:22.868Z,12.70
2019-02-20T06:59:51.416Z,13.00
2019-02-20T07:02:19.977Z,14.00
2019-02-20T07:05:24.461Z,13.50
2019-02-20T07:08:12.693Z,12.73
2019-02-20T07:10:50.083Z,13.27
2019-02-20T07:13:20.464Z,12.50
2019-02-20T07:15:52.107Z,14.03
2019-02-20T07:18:29.800Z,13.13
2019-02-20T07:21:17.880Z,13.40
2019-02-20T07:24:07.373Z,12.07
2019-02-20T07:26:44.685Z,13.90
2019-02-20T07:29:32.523Z,12.57
2019-02-20T07:32:01.109Z,13.00
2019-02-20T07:34:29.655Z,13.87
2019-02-20T07:36:58.225Z,12.43
2019-02-20T07:39:26.865Z,14.37
2019-02-20T07:41:55.394Z,14.07
2019-02-20T07:44:23.945Z,12.53
2019-02-20T07:46:52.527Z,14.97
2019-02-20T07:49:21.084Z,13.70
2019-02-20T07:51:49.578Z,15.27
2019-02-20T07:54:18.178Z,14.73
2019-02-20T07:56:46.729Z,14.17
2019-02-20T07:59:15.295Z,15.00
2019-02-20T08:01:44.400Z,13.70
2019-02-20T08:04:12.919Z,13.30
2019-02-20T08:06:41.468Z,14.03
2019-02-20T08:09:10.016Z,13.40
2019-02-20T08:11:38.575Z,16.43
2019-02-20T08:14:07.142Z,15.77
2019-02-20T08:16:35.708Z,16.27
2019-02-20T08:19:04.274Z,17.47
2019-02-20T08:21:32.850Z,15.53
2019-02-20T08:24:01.406Z,15.43
2019-02-20T08:26:29.999Z,14.47
2019-02-20T08:28:58.577Z,14.50
2019-02-20T08:31:27.157Z,13.40
2019-02-20T08:33:55.689Z,13.87
2019-02-20T08:36:24.256Z,14.13
2019-02-20T08:38:52.817Z,13.37
2019-02-20T08:41:21.383Z,14.00
2019-02-20T08:43:50.846Z,17.13
2019-02-20T08:46:19.327Z,14.23
2019-02-20T08:48:47.911Z,13.30
2019-02-20T08:51:16.479Z,14.93
2019-02-20T08:53:45.034Z,13.57
2019-02-20T08:56:13.511Z,14.13
2019-02-20T08:58:42.066Z,12.60
2019-02-20T09:01:10.567Z,13.47
2019-02-20T09:03:39.123Z,14.90
2019-02-20T09:06:07.681Z,13.93
2019-02-20T09:08:36.316Z,14.77
2019-02-20T09:11:04.947Z,14.53
2019-02-20T09:13:33.513Z,13.07
2019-02-20T09:16:02.059Z,13.90
2019-02-20T09:18:30.613Z,15.07
2019-02-20T09:20:59.188Z,15.13
2019-02-20T09:23:27.752Z,15.20
2019-02-20T09:25:56.292Z,15.10
2019-02-20T09:28:24.763Z,13.70
2019-02-20T09:30:53.335Z,13.87
2019-02-20T09:33:21.898Z,14.30
2019-02-20T09:35:50.460Z,15.77
2019-02-20T09:38:19.011Z,15.20
2019-02-20T09:40:47.501Z,15.13
2019-02-20T09:43:16.067Z,14.23
2019-02-20T09:45:44.673Z,15.63
2019-02-20T09:48:13.224Z,17.03
2019-02-20T09:50:41.774Z,16.07
2019-02-20T09:53:10.272Z,15.03
2019-02-20T09:55:38.878Z,14.97
2019-02-20T09:58:07.470Z,15.50
2019-02-20T10:00:35.994Z,17.10
2019-02-20T10:03:04.525Z,16.30
2019-02-20T10:05:33.010Z,16.27
2019-02-20T10:08:01.612Z,14.80
2019-02-20T10:10:30.143Z,14.87
2019-02-20T10:12:58.660Z,14.97
2019-02-20T10:15:27.197Z,17.73
2019-02-20T10:17:55.692Z,17.80
2019-02-20T10:20:24.232Z,16.57
2019-02-20T10:22:52.734Z,15.53
2019-02-20T10:25:21.296Z,14.93
2019-02-20T10:27:50.462Z,15.47
2019-02-20T10:30:19.858Z,15.37
2019-02-20T10:32:48.496Z,16.00
2019-02-20T10:35:17.128Z,14.87
2019-02-20T10:37:45.706Z,16.80
2019-02-20T10:40:14.312Z,16.27
2019-02-20T10:42:43.788Z,17.20
2019-02-20T10:45:13.274Z,16.60
2019-02-20T10:47:41.988Z,15.73
2019-02-20T10:50:11.912Z,15.60
2019-02-20T10:52:40.465Z,17.30
2019-02-20T10:55:09.880Z,16.83
2019-02-20T10:57:38.581Z,16.40
2019-02-20T11:00:23.603Z,17.17
2019-02-20T11:02:44.641Z,16.73
2019-02-20T11:05:13.226Z,16.37
2019-02-20T11:07:41.853Z,16.30
2019-02-20T11:10:10.523Z,15.77
2019-02-20T11:12:39.085Z,15.93
2019-02-20T11:15:08.580Z,15.43
2019-02-20T11:17:37.503Z,16.33
2019-02-20T11:20:10.759Z,15.93
2019-02-20T11:22:39.225Z,15.87
2019-02-20T11:25:10.281Z,16.87
2019-02-20T11:27:39.560Z,16.23
2019-02-20T11:30:22.281Z,15.50
2019-02-20T11:32:50.741Z,16.30
2019-02-20T11:35:19.855Z,16.80
2019-02-20T11:37:48.350Z,16.67
2019-02-20T11:40:17.050Z,18.80
2019-02-20T11:42:45.545Z,15.67
2019-02-20T11:45:17.466Z,17.13
2019-02-20T11:47:47.556Z,17.13
2019-02-20T11:50:16.115Z,18.23
2019-02-20T11:52:44.664Z,18.80
2019-02-20T11:55:14.485Z,17.87
2019-02-20T11:57:43.120Z,15.67
2019-02-20T12:00:13.511Z,16.03
2019-02-20T12:02:42.294Z,17.60
2019-02-20T12:05:11.082Z,17.60
2019-02-20T12:07:42.817Z,18.50
2019-02-20T12:10:13.673Z,18.23
2019-02-20T12:12:42.312Z,17.57
2019-02-20T12:15:10.875Z,17.30
2019-02-20T12:17:39.436Z,16.10
2019-02-20T12:20:08.567Z,16.47
2019-02-20T12:22:37.119Z,18.47
2019-02-20T12:25:07.965Z,16.10
2019-02-20T12:27:36.601Z,16.63
2019-02-20T12:30:10.260Z,16.40
2019-02-20T12:32:38.991Z,17.77
2019-02-20T12:35:08.897Z,17.40
2019-02-20T12:37:37.469Z,18.63
2019-02-20T12:40:07.857Z,16.07
2019-02-20T12:42:36.388Z,17.57
2019-02-20T12:45:13.797Z,16.73
2019-02-20T12:47:42.461Z,16.37
2019-02-20T12:50:15.084Z,15.20
2019-02-20T12:52:43.655Z,16.90
2019-02-20T12:55:12.213Z,16.70
2019-02-20T12:57:40.877Z,16.10
2019-02-20T13:00:15.582Z,15.13
2019-02-20T13:02:45.109Z,16.50
2019-02-20T13:05:13.827Z,15.43
2019-02-20T13:07:42.372Z,14.67
2019-02-20T13:10:11.088Z,14.40
2019-02-20T13:12:39.639Z,14.43
2019-02-20T13:15:09.943Z,15.40
2019-02-20T13:17:38.490Z,16.03
2019-02-20T13:20:09.278Z,16.30
2019-02-20T13:22:38.065Z,15.20
2019-02-20T13:25:08.065Z,13.80
2019-02-20T13:27:36.545Z,17.70
2019-02-20T13:30:08.340Z,15.20
2019-02-20T13:32:36.813Z,14.37
2019-02-20T13:35:06.718Z,14.50
2019-02-20T13:37:35.343Z,15.40
2019-02-20T13:40:04.185Z,15.60
2019-02-20T13:42:32.751Z,14.50
2019-02-20T13:45:01.349Z,14.67
2019-02-20T13:47:29.909Z,14.80
2019-02-20T13:49:58.466Z,14.10
2019-02-20T13:52:27.611Z,15.23
2019-02-20T13:54:56.163Z,13.57
2019-02-20T13:57:24.900Z,13.60
2019-02-20T13:59:53.419Z,13.40
2019-02-20T14:02:22.166Z,13.90
2019-02-20T14:04:50.858Z,14.17
2019-02-20T14:07:19.445Z,14.23
2019-02-20T14:09:48.967Z,15.20
2019-02-20T14:12:17.868Z,15.50
2019-02-20T14:14:46.430Z,13.83
2019-02-20T14:17:14.996Z,15.80
2019-02-20T14:19:43.560Z,14.60
2019-02-20T14:22:12.164Z,12.60
2019-02-20T14:24:40.785Z,13.07
2019-02-20T14:27:11.114Z,14.73
2019-02-20T14:29:39.595Z,14.20
2019-02-20T14:32:08.156Z,14.07
2019-02-20T14:34:36.759Z,10.43
2019-02-20T14:37:05.417Z,7.60
2019-02-20T14:39:34.095Z,6.47
2019-02-20T14:42:02.630Z,6.03
2019-02-20T14:44:31.508Z,6.53
2019-02-20T14:47:00.052Z,5.27
2019-02-20T14:49:28.692Z,6.47
2019-02-20T14:51:57.260Z,6.23
2019-02-20T14:54:25.845Z,6.90
2019-02-20T14:56:54.392Z,6.40
2019-02-20T14:59:22.949Z,7.13
2019-02-20T15:01:51.852Z,7.60
2019-02-20T15:04:20.431Z,7.23
2019-02-20T15:06:49.230Z,6.95
2019-02-20T15:09:17.807Z,7.50
2019-02-20T15:11:46.404Z,7.57
2019-02-20T15:14:16.153Z,7.63
2019-02-20T15:16:44.915Z,7.80
2019-02-20T15:19:13.487Z,7.43
2019-02-20T15:21:42.136Z,7.27
2019-02-20T15:24:10.670Z,6.27
2019-02-20T15:26:39.221Z,8.13
2019-02-20T15:29:07.780Z,7.47
2019-02-20T15:31:36.338Z,7.50
2019-02-20T15:34:05.187Z,7.63
2019-02-20T15:36:33.790Z,6.60
2019-02-20T15:39:02.416Z,7.20
2019-02-20T15:41:30.998Z,7.70
2019-02-20T15:43:59.576Z,7.27
2019-02-20T15:46:28.168Z,7.40
2019-02-20T15:48:57.998Z,6.93
2019-02-20T15:51:26.658Z,6.43
2019-02-20T15:53:55.288Z,7.20
2019-02-20T15:56:25.106Z,7.17
2019-02-20T15:58:53.695Z,8.77
2019-02-20T16:01:22.239Z,6.97
2019-02-20T16:03:50.949Z,6.77
2019-02-20T16:06:19.486Z,7.53
2019-02-20T16:08:49.922Z,7.07
2019-02-20T16:11:18.505Z,7.47
2019-02-20T16:13:47.067Z,7.43
2019-02-20T16:16:15.609Z,7.23
2019-02-20T16:18:44.219Z,7.50
2019-02-20T16:21:12.883Z,6.57
2019-02-20T16:23:41.736Z,7.30
2019-02-20T16:26:10.323Z,7.33
2019-02-20T16:28:38.875Z,7.30
2019-02-20T16:31:07.455Z,7.67
2019-02-20T16:33:36.004Z,7.90
2019-02-20T16:36:04.607Z,7.33
2019-02-20T16:38:33.215Z,6.53
2019-02-20T16:41:01.783Z,8.30
2019-02-20T16:43:30.363Z,7.00
2019-02-20T16:45:59.108Z,7.43
2019-02-20T16:48:27.672Z,8.77
2019-02-20T16:50:56.384Z,9.97
2019-02-20T16:53:24.964Z,8.77
2019-02-20T16:55:53.523Z,7.60
2019-02-20T16:58:22.154Z,9.33
2019-02-20T17:00:50.857Z,8.73
2019-02-20T17:10:15.591Z,10.83
2019-02-20T17:12:44.258Z,9.37
2019-02-20T17:15:16.630Z,10.70
2019-02-20T17:17:45.232Z,11.20
2019-02-20T17:20:17.580Z,10.80
2019-02-20T17:22:46.624Z,10.43
2019-02-20T17:25:15.405Z,9.83
2019-02-20T17:27:44.078Z,10.33
2019-02-20T17:30:15.701Z,10.90
2019-02-20T17:32:44.628Z,9.53
2019-02-20T17:35:13.757Z,11.00
2019-02-20T17:37:42.284Z,11.40
2019-02-20T17:40:11.873Z,13.93
2019-02-20T17:42:40.405Z,16.47
2019-02-20T17:45:11.904Z,14.30
2019-02-20T17:47:40.437Z,10.90
2019-02-20T17:50:11.739Z,9.80
2019-02-20T17:52:40.336Z,9.20
2019-02-20T17:55:09.949Z,8.13
2019-02-20T17:57:38.405Z,9.90
2019-02-20T18:00:19.054Z,9.60
2019-02-20T18:02:47.586Z,9.70
2019-02-20T18:05:16.200Z,9.50
2019-02-20T18:07:49.756Z,8.23
2019-02-20T18:10:15.093Z,9.17
2019-02-20T18:12:43.579Z,9.60
2019-02-20T18:15:13.498Z,8.90
2019-02-20T18:17:42.109Z,9.63
2019-02-20T18:20:11.312Z,9.10
2019-02-20T18:22:39.948Z,7.90
2019-02-20T18:25:10.084Z,9.07
2019-02-20T18:27:38.650Z,9.37
2019-02-20T18:30:10.283Z,8.00
2019-02-20T18:32:38.764Z,8.30
2019-02-20T18:35:10.030Z,8.40
2019-02-20T18:37:38.493Z,9.27
2019-02-20T18:40:09.994Z,8.70
2019-02-20T18:42:38.488Z,7.80
2019-02-20T18:45:09.951Z,8.07
2019-02-20T18:47:38.594Z,8.07
2019-02-20T18:50:10.356Z,7.57
2019-02-20T18:52:38.983Z,8.30
2019-02-20T18:55:09.926Z,8.70
2019-02-20T18:57:38.385Z,9.40
2019-02-20T19:00:15.904Z,8.77
2019-02-20T19:02:44.507Z,8.97
2019-02-20T19:05:13.231Z,9.77
2019-02-20T19:07:41.696Z,9.30
2019-02-20T19:10:16.327Z,9.90
2019-02-20T19:12:50.711Z,10.93
2019-02-20T19:15:25.091Z,11.13
2019-02-20T19:18:02.185Z,11.00
2019-02-20T19:20:36.338Z,10.03
2019-02-20T19:23:22.972Z,9.23
2019-02-20T19:26:00.645Z,10.63
2019-02-20T19:28:54.790Z,9.63
2019-02-20T19:31:54.634Z,9.47
2019-02-20T19:34:40.054Z,9.03
2019-02-20T19:37:32.321Z,8.53
2019-02-20T19:40:29.392Z,9.83
2019-02-20T19:43:27.465Z,9.80
2019-02-20T19:46:06.644Z,9.37
2019-02-20T19:48:49.911Z,8.93
2019-02-20T19:51:24.371Z,9.40
2019-02-20T19:54:01.725Z,9.70
2019-02-20T19:56:33.268Z,10.77
2019-02-20T19:59:10.654Z,10.30
2019-02-20T20:01:58.763Z,10.97
2019-02-20T20:04:30.278Z,9.00
2019-02-20T20:07:16.916Z,9.47
2019-02-20T20:09:57.141Z,10.20
2019-02-20T20:12:49.667Z,9.70
2019-02-20T20:15:24.148Z,10.23
2019-02-20T20:18:27.257Z,11.17
2019-02-20T20:21:04.600Z,10.90
2019-02-20T20:23:45.842Z,10.27
2019-02-20T20:26:17.425Z,9.63
2019-02-20T20:29:09.978Z,9.03
2019-02-20T20:31:44.259Z,9.07
2019-02-20T20:34:18.847Z,9.77
2019-02-20T20:36:53.280Z,8.73
2019-02-20T20:39:30.699Z,10.70
2019-02-20T20:42:05.137Z,10.80
2019-02-20T20:44:51.436Z,11.93
2019-02-20T20:47:39.486Z,11.37
2019-02-20T20:50:14.076Z,12.23
2019-02-20T20:52:51.613Z,10.67
2019-02-20T20:55:39.345Z,11.40
2019-02-20T20:58:31.637Z,11.47
2019-02-20T21:01:08.950Z,13.37
2019-02-20T21:03:44.944Z,11.00
2019-02-20T21:06:35.993Z,9.43
2019-02-20T21:09:07.807Z,8.47
2019-02-20T21:11:48.067Z,8.67
2019-02-20T21:14:31.286Z,8.97
2019-02-20T21:17:05.587Z,8.97
2019-02-20T21:19:42.718Z,9.10
2019-02-20T21:22:20.293Z,8.83
2019-02-20T21:25:26.355Z,8.97
2019-02-20T21:28:03.821Z,9.47
2019-02-20T21:30:35.367Z,9.10
2019-02-20T21:33:24.820Z,8.70
2019-02-20T21:35:58.892Z,9.00
2019-02-20T21:38:42.251Z,9.13
2019-02-20T21:41:13.786Z,9.27
2019-02-20T21:44:18.159Z,8.30
2019-02-20T21:47:22.541Z,9.53
2019-02-20T21:50:22.398Z,9.13
2019-02-20T21:52:59.439Z,8.97
2019-02-20T21:56:00.829Z,8.00
2019-02-20T21:58:38.322Z,8.57
2019-02-20T22:01:30.501Z,8.83
2019-02-20T22:04:16.725Z,9.00
2019-02-20T22:07:03.466Z,9.03
2019-02-20T22:09:37.794Z,12.07
2019-02-20T22:12:15.274Z,15.33
2019-02-20T22:15:01.184Z,10.67
2019-02-20T22:17:41.798Z,9.53
2019-02-20T22:20:29.581Z,8.07
2019-02-20T22:23:07.005Z,9.53
2019-02-20T22:26:11.673Z,9.00
2019-02-20T22:28:54.908Z,9.20
2019-02-20T22:31:43.697Z,9.33
2019-02-20T22:34:23.940Z,9.47
2019-02-20T22:37:15.929Z,9.73
2019-02-20T22:40:04.858Z,9.87
2019-02-20T22:42:45.301Z,9.47
2019-02-20T22:45:33.657Z,9.37
2019-02-20T22:48:23.667Z,9.33
2019-02-20T22:51:07.197Z,10.07
2019-02-20T22:54:09.984Z,9.80
2019-02-20T22:56:59.213Z,10.23
2019-02-20T22:59:42.434Z,9.73
2019-02-20T23:02:28.605Z,10.23
2019-02-20T23:05:00.216Z,10.97
2019-02-20T23:07:31.799Z,11.97
2019-02-20T23:10:25.586Z,10.00
2019-02-20T23:13:00.045Z,10.90
2019-02-20T23:15:28.583Z,11.00
2019-02-20T23:17:57.075Z,11.67
2019-02-20T23:20:25.560Z,10.30
2019-02-20T23:22:54.016Z,9.47
2019-02-20T23:25:22.500Z,11.27
2019-02-20T23:27:50.966Z,11.23
2019-02-20T23:30:19.442Z,10.43
2019-02-20T23:32:47.905Z,10.50
2019-02-20T23:35:16.420Z,10.10
2019-02-20T23:37:44.935Z,10.90
2019-02-20T23:40:13.489Z,10.43
2019-02-20T23:42:41.943Z,9.57
2019-02-20T23:45:10.561Z,9.33
2019-02-20T23:47:39.101Z,10.63
2019-02-20T23:50:08.326Z,10.20
2019-02-20T23:52:36.853Z,10.50
2019-02-20T23:55:06.686Z,9.63
2019-02-20T23:57:35.281Z,10.77
